sensor_id;sensor_type;location;lat;lon;timestamp;temperature;humidity
70820;DHT22;58439;51.046;13.692;2023-04-25T00:00:19;9.20;96.70
70820;DHT22;58439;51.046;13.692;2023-04-25T00:02:47;9.20;96.90
70820;DHT22;58439;51.046;13.692;2023-04-25T00:05:17;9.20;97.00
70820;DHT22;58439;51.046;13.692;2023-04-25T00:07:46;9.30;97.10
70820;DHT22;58439;51.046;13.692;2023-04-25T00:10:13;9.30;97.20
70820;DHT22;58439;51.046;13.692;2023-04-25T00:12:42;9.40;97.20
70820;DHT22;58439;51.046;13.692;2023-04-25T00:15:10;9.40;97.30
70820;DHT22;58439;51.046;13.692;2023-04-25T00:17:37;9.40;97.30
70820;DHT22;58439;51.046;13.692;2023-04-25T00:20:05;9.50;97.40
70820;DHT22;58439;51.046;13.692;2023-04-25T00:22:35;9.50;97.40
70820;DHT22;58439;51.046;13.692;2023-04-25T00:25:05;9.50;97.40
70820;DHT22;58439;51.046;13.692;2023-04-25T00:27:33;9.50;97.40
70820;DHT22;58439;51.046;13.692;2023-04-25T00:30:00;9.50;97.40
70820;DHT22;58439;51.046;13.692;2023-04-25T00:32:27;9.50;97.50
70820;DHT22;58439;51.046;13.692;2023-04-25T00:34:56;9.40;97.50
70820;DHT22;58439;51.046;13.692;2023-04-25T00:37:25;9.30;97.50
70820;DHT22;58439;51.046;13.692;2023-04-25T00:39:52;9.30;97.60
70820;DHT22;58439;51.046;13.692;2023-04-25T00:42:21;9.30;97.70
70820;DHT22;58439;51.046;13.692;2023-04-25T00:44:48;9.20;97.80
70820;DHT22;58439;51.046;13.692;2023-04-25T00:47:17;9.20;97.70
70820;DHT22;58439;51.046;13.692;2023-04-25T00:49:45;9.20;97.70
70820;DHT22;58439;51.046;13.692;2023-04-25T00:52:12;9.20;97.70
70820;DHT22;58439;51.046;13.692;2023-04-25T00:54:40;9.10;97.50
70820;DHT22;58439;51.046;13.692;2023-04-25T00:57:10;9.00;97.70
70820;DHT22;58439;51.046;13.692;2023-04-25T00:59:38;9.00;97.90
70820;DHT22;58439;51.046;13.692;2023-04-25T01:02:10;8.90;98.00
70820;DHT22;58439;51.046;13.692;2023-04-25T01:04:37;8.80;98.10
70820;DHT22;58439;51.046;13.692;2023-04-25T01:07:04;8.70;98.10
70820;DHT22;58439;51.046;13.692;2023-04-25T01:09:32;8.70;98.30
70820;DHT22;58439;51.046;13.692;2023-04-25T01:11:59;8.70;98.50
70820;DHT22;58439;51.046;13.692;2023-04-25T01:14:28;8.60;98.40
70820;DHT22;58439;51.046;13.692;2023-04-25T01:16:57;8.60;98.50
70820;DHT22;58439;51.046;13.692;2023-04-25T01:19:25;8.60;98.60
70820;DHT22;58439;51.046;13.692;2023-04-25T01:21:52;8.60;98.40
70820;DHT22;58439;51.046;13.692;2023-04-25T01:24:20;8.50;98.40
70820;DHT22;58439;51.046;13.692;2023-04-25T01:26:48;8.50;98.50
70820;DHT22;58439;51.046;13.692;2023-04-25T01:29:22;8.40;98.50
70820;DHT22;58439;51.046;13.692;2023-04-25T01:31:51;8.40;98.50
70820;DHT22;58439;51.046;13.692;2023-04-25T01:34:20;8.30;98.40
70820;DHT22;58439;51.046;13.692;2023-04-25T01:36:49;8.30;98.30
70820;DHT22;58439;51.046;13.692;2023-04-25T01:39:18;8.30;98.40
70820;DHT22;58439;51.046;13.692;2023-04-25T01:41:46;8.20;98.30
70820;DHT22;58439;51.046;13.692;2023-04-25T01:44:15;8.20;98.30
70820;DHT22;58439;51.046;13.692;2023-04-25T01:46:42;8.20;98.30
70820;DHT22;58439;51.046;13.692;2023-04-25T01:49:11;8.20;98.30
70820;DHT22;58439;51.046;13.692;2023-04-25T01:51:39;8.10;98.30
70820;DHT22;58439;51.046;13.692;2023-04-25T01:54:08;8.10;98.30
70820;DHT22;58439;51.046;13.692;2023-04-25T01:56:37;8.00;98.50
70820;DHT22;58439;51.046;13.692;2023-04-25T01:59:08;8.00;98.60
70820;DHT22;58439;51.046;13.692;2023-04-25T02:01:54;7.90;98.70
70820;DHT22;58439;51.046;13.692;2023-04-25T02:04:26;7.90;98.80
70820;DHT22;58439;51.046;13.692;2023-04-25T02:06:54;7.90;98.80
70820;DHT22;58439;51.046;13.692;2023-04-25T02:09:22;7.80;98.80
70820;DHT22;58439;51.046;13.692;2023-04-25T02:11:54;7.80;99.00
70820;DHT22;58439;51.046;13.692;2023-04-25T02:14:26;7.80;98.90
70820;DHT22;58439;51.046;13.692;2023-04-25T02:17:17;7.70;99.00
70820;DHT22;58439;51.046;13.692;2023-04-25T02:19:45;7.70;99.10
70820;DHT22;58439;51.046;13.692;2023-04-25T02:22:12;7.60;99.20
70820;DHT22;58439;51.046;13.692;2023-04-25T02:24:39;7.50;99.30
70820;DHT22;58439;51.046;13.692;2023-04-25T02:27:06;7.50;99.60
70820;DHT22;58439;51.046;13.692;2023-04-25T02:29:35;7.50;99.70
70820;DHT22;58439;51.046;13.692;2023-04-25T02:32:02;7.40;99.90
70820;DHT22;58439;51.046;13.692;2023-04-25T02:34:29;7.40;99.90
70820;DHT22;58439;51.046;13.692;2023-04-25T02:37:00;7.30;99.90
70820;DHT22;58439;51.046;13.692;2023-04-25T02:39:27;7.30;99.90
70820;DHT22;58439;51.046;13.692;2023-04-25T02:41:55;7.30;99.90
70820;DHT22;58439;51.046;13.692;2023-04-25T02:44:23;7.30;99.90
70820;DHT22;58439;51.046;13.692;2023-04-25T02:46:50;7.30;99.90
70820;DHT22;58439;51.046;13.692;2023-04-25T02:49:17;7.30;99.90
70820;DHT22;58439;51.046;13.692;2023-04-25T02:51:44;7.30;99.90
70820;DHT22;58439;51.046;13.692;2023-04-25T02:54:12;7.30;99.90
70820;DHT22;58439;51.046;13.692;2023-04-25T02:56:43;7.20;99.90
70820;DHT22;58439;51.046;13.692;2023-04-25T02:59:15;7.20;99.90
70820;DHT22;58439;51.046;13.692;2023-04-25T03:01:42;7.20;99.90
70820;DHT22;58439;51.046;13.692;2023-04-25T03:04:09;7.20;99.90
70820;DHT22;58439;51.046;13.692;2023-04-25T03:06:36;7.20;99.90
70820;DHT22;58439;51.046;13.692;2023-04-25T03:09:03;7.10;99.90
70820;DHT22;58439;51.046;13.692;2023-04-25T03:11:30;7.10;99.90
70820;DHT22;58439;51.046;13.692;2023-04-25T03:13:57;7.10;99.90
70820;DHT22;58439;51.046;13.692;2023-04-25T03:16:25;7.10;99.90
70820;DHT22;58439;51.046;13.692;2023-04-25T03:18:52;7.00;99.90
70820;DHT22;58439;51.046;13.692;2023-04-25T03:21:20;7.00;99.90
70820;DHT22;58439;51.046;13.692;2023-04-25T03:23:47;6.90;99.90
70820;DHT22;58439;51.046;13.692;2023-04-25T03:26:14;6.90;99.90
70820;DHT22;58439;51.046;13.692;2023-04-25T03:28:42;6.90;99.90
70820;DHT22;58439;51.046;13.692;2023-04-25T03:31:09;6.80;99.90
70820;DHT22;58439;51.046;13.692;2023-04-25T03:33:36;6.80;99.90
70820;DHT22;58439;51.046;13.692;2023-04-25T03:36:04;6.70;99.90
70820;DHT22;58439;51.046;13.692;2023-04-25T03:38:32;6.70;99.90
70820;DHT22;58439;51.046;13.692;2023-04-25T03:41:00;6.70;99.90
70820;DHT22;58439;51.046;13.692;2023-04-25T03:43:40;6.70;99.90
70820;DHT22;58439;51.046;13.692;2023-04-25T03:46:11;6.60;99.90
70820;DHT22;58439;51.046;13.692;2023-04-25T03:48:40;6.60;99.90
70820;DHT22;58439;51.046;13.692;2023-04-25T03:51:08;6.60;99.90
70820;DHT22;58439;51.046;13.692;2023-04-25T03:53:42;6.60;99.90
70820;DHT22;58439;51.046;13.692;2023-04-25T03:56:29;6.60;99.90
70820;DHT22;58439;51.046;13.692;2023-04-25T03:59:05;6.60;99.90
70820;DHT22;58439;51.046;13.692;2023-04-25T04:01:32;6.60;99.90
70820;DHT22;58439;51.046;13.692;2023-04-25T04:03:59;6.60;99.90
70820;DHT22;58439;51.046;13.692;2023-04-25T04:06:28;6.60;99.90
70820;DHT22;58439;51.046;13.692;2023-04-25T04:09:03;6.60;99.90
70820;DHT22;58439;51.046;13.692;2023-04-25T04:11:34;6.60;99.90
70820;DHT22;58439;51.046;13.692;2023-04-25T04:14:07;6.60;99.90
70820;DHT22;58439;51.046;13.692;2023-04-25T04:16:37;6.60;99.90
70820;DHT22;58439;51.046;13.692;2023-04-25T04:19:04;6.60;99.90
70820;DHT22;58439;51.046;13.692;2023-04-25T04:21:33;6.60;99.90
70820;DHT22;58439;51.046;13.692;2023-04-25T04:24:02;6.70;99.90
70820;DHT22;58439;51.046;13.692;2023-04-25T04:26:38;6.80;99.90
70820;DHT22;58439;51.046;13.692;2023-04-25T04:29:23;6.80;99.90
70820;DHT22;58439;51.046;13.692;2023-04-25T04:32:09;6.90;99.90
70820;DHT22;58439;51.046;13.692;2023-04-25T04:34:36;6.90;99.90
70820;DHT22;58439;51.046;13.692;2023-04-25T04:37:04;6.90;99.90
70820;DHT22;58439;51.046;13.692;2023-04-25T04:39:35;7.00;99.90
70820;DHT22;58439;51.046;13.692;2023-04-25T04:42:18;7.00;99.90
70820;DHT22;58439;51.046;13.692;2023-04-25T04:45:00;7.00;99.90
70820;DHT22;58439;51.046;13.692;2023-04-25T04:47:47;7.10;99.90
70820;DHT22;58439;51.046;13.692;2023-04-25T04:50:27;7.20;99.90
70820;DHT22;58439;51.046;13.692;2023-04-25T04:53:15;7.20;99.90
70820;DHT22;58439;51.046;13.692;2023-04-25T04:56:19;7.30;99.90
70820;DHT22;58439;51.046;13.692;2023-04-25T04:59:00;7.40;99.90
70820;DHT22;58439;51.046;13.692;2023-04-25T05:01:58;7.40;99.90
70820;DHT22;58439;51.046;13.692;2023-04-25T05:04:41;7.50;99.90
70820;DHT22;58439;51.046;13.692;2023-04-25T05:07:44;7.60;99.90
70820;DHT22;58439;51.046;13.692;2023-04-25T05:11:05;7.70;99.90
70820;DHT22;58439;51.046;13.692;2023-04-25T05:13:38;7.90;99.20
70820;DHT22;58439;51.046;13.692;2023-04-25T05:16:25;8.00;99.00
70820;DHT22;58439;51.046;13.692;2023-04-25T05:19:27;8.10;98.80
70820;DHT22;58439;51.046;13.692;2023-04-25T05:22:18;8.20;98.30
70820;DHT22;58439;51.046;13.692;2023-04-25T05:25:10;8.30;97.20
70820;DHT22;58439;51.046;13.692;2023-04-25T05:28:07;8.40;96.30
70820;DHT22;58439;51.046;13.692;2023-04-25T05:31:00;8.50;96.30
70820;DHT22;58439;51.046;13.692;2023-04-25T05:33:49;8.50;95.70
70820;DHT22;58439;51.046;13.692;2023-04-25T05:36:21;8.60;95.60
70820;DHT22;58439;51.046;13.692;2023-04-25T05:38:51;8.60;95.10
70820;DHT22;58439;51.046;13.692;2023-04-25T05:41:44;8.70;94.80
70820;DHT22;58439;51.046;13.692;2023-04-25T05:44:28;8.70;94.60
70820;DHT22;58439;51.046;13.692;2023-04-25T05:47:15;8.80;93.50
70820;DHT22;58439;51.046;13.692;2023-04-25T05:49:57;8.80;93.00
70820;DHT22;58439;51.046;13.692;2023-04-25T05:52:42;8.80;92.70
70820;DHT22;58439;51.046;13.692;2023-04-25T05:55:23;8.90;92.50
70820;DHT22;58439;51.046;13.692;2023-04-25T05:57:50;9.00;91.00
70820;DHT22;58439;51.046;13.692;2023-04-25T06:00:17;9.00;91.00
70820;DHT22;58439;51.046;13.692;2023-04-25T06:02:48;9.10;91.20
70820;DHT22;58439;51.046;13.692;2023-04-25T06:05:16;9.20;90.90
70820;DHT22;58439;51.046;13.692;2023-04-25T06:07:45;9.20;90.60
70820;DHT22;58439;51.046;13.692;2023-04-25T06:10:13;9.30;90.20
70820;DHT22;58439;51.046;13.692;2023-04-25T06:12:42;9.30;89.50
70820;DHT22;58439;51.046;13.692;2023-04-25T06:15:10;9.30;88.90
70820;DHT22;58439;51.046;13.692;2023-04-25T06:17:54;9.30;86.60
70820;DHT22;58439;51.046;13.692;2023-04-25T06:20:22;9.30;86.90
70820;DHT22;58439;51.046;13.692;2023-04-25T06:22:52;9.30;87.40
70820;DHT22;58439;51.046;13.692;2023-04-25T06:25:25;9.30;87.50
70820;DHT22;58439;51.046;13.692;2023-04-25T06:27:53;9.40;87.30
70820;DHT22;58439;51.046;13.692;2023-04-25T06:30:21;9.40;85.00
70820;DHT22;58439;51.046;13.692;2023-04-25T06:32:56;9.50;85.70
70820;DHT22;58439;51.046;13.692;2023-04-25T06:35:23;9.50;86.30
70820;DHT22;58439;51.046;13.692;2023-04-25T06:37:50;9.60;84.80
70820;DHT22;58439;51.046;13.692;2023-04-25T06:40:21;9.70;83.10
70820;DHT22;58439;51.046;13.692;2023-04-25T06:42:48;9.70;82.90
70820;DHT22;58439;51.046;13.692;2023-04-25T06:45:50;9.70;80.80
70820;DHT22;58439;51.046;13.692;2023-04-25T06:48:19;9.80;80.90
70820;DHT22;58439;51.046;13.692;2023-04-25T06:50:46;9.90;79.60
70820;DHT22;58439;51.046;13.692;2023-04-25T06:53:13;9.90;79.00
70820;DHT22;58439;51.046;13.692;2023-04-25T06:55:43;10.00;78.90
70820;DHT22;58439;51.046;13.692;2023-04-25T06:58:17;10.00;77.30
70820;DHT22;58439;51.046;13.692;2023-04-25T07:01:03;10.00;77.10
70820;DHT22;58439;51.046;13.692;2023-04-25T07:03:31;10.10;77.60
70820;DHT22;58439;51.046;13.692;2023-04-25T07:06:03;10.10;77.50
70820;DHT22;58439;51.046;13.692;2023-04-25T07:08:30;10.30;77.50
70820;DHT22;58439;51.046;13.692;2023-04-25T07:10:58;10.40;74.40
70820;DHT22;58439;51.046;13.692;2023-04-25T07:13:25;10.50;73.80
70820;DHT22;58439;51.046;13.692;2023-04-25T07:15:52;10.60;68.30
70820;DHT22;58439;51.046;13.692;2023-04-25T07:18:23;10.50;67.90
70820;DHT22;58439;51.046;13.692;2023-04-25T07:20:50;10.60;68.10
70820;DHT22;58439;51.046;13.692;2023-04-25T07:23:18;10.70;66.20
70820;DHT22;58439;51.046;13.692;2023-04-25T07:25:46;10.80;63.00
70820;DHT22;58439;51.046;13.692;2023-04-25T07:28:19;10.90;63.10
70820;DHT22;58439;51.046;13.692;2023-04-25T07:30:47;11.00;61.30
70820;DHT22;58439;51.046;13.692;2023-04-25T07:33:14;11.00;61.70
70820;DHT22;58439;51.046;13.692;2023-04-25T07:35:41;11.10;60.30
70820;DHT22;58439;51.046;13.692;2023-04-25T07:38:09;11.10;58.60
70820;DHT22;58439;51.046;13.692;2023-04-25T07:40:37;11.10;57.80
70820;DHT22;58439;51.046;13.692;2023-04-25T07:43:07;11.10;57.10
70820;DHT22;58439;51.046;13.692;2023-04-25T07:45:44;11.20;56.70
70820;DHT22;58439;51.046;13.692;2023-04-25T07:48:17;11.50;55.20
70820;DHT22;58439;51.046;13.692;2023-04-25T07:50:50;11.70;54.20
70820;DHT22;58439;51.046;13.692;2023-04-25T07:53:18;11.70;53.50
70820;DHT22;58439;51.046;13.692;2023-04-25T07:55:53;11.60;53.50
70820;DHT22;58439;51.046;13.692;2023-04-25T07:58:21;11.70;54.20
70820;DHT22;58439;51.046;13.692;2023-04-25T08:00:53;11.80;51.30
70820;DHT22;58439;51.046;13.692;2023-04-25T08:03:35;12.00;49.50
70820;DHT22;58439;51.046;13.692;2023-04-25T08:06:07;12.20;48.40
70820;DHT22;58439;51.046;13.692;2023-04-25T08:08:43;12.30;47.60
70820;DHT22;58439;51.046;13.692;2023-04-25T08:11:12;12.10;47.50
70820;DHT22;58439;51.046;13.692;2023-04-25T08:13:39;12.10;48.60
70820;DHT22;58439;51.046;13.692;2023-04-25T08:16:07;12.10;49.40
70820;DHT22;58439;51.046;13.692;2023-04-25T08:18:34;12.10;49.20
70820;DHT22;58439;51.046;13.692;2023-04-25T08:21:01;12.00;49.90
70820;DHT22;58439;51.046;13.692;2023-04-25T08:23:29;11.90;50.40
70820;DHT22;58439;51.046;13.692;2023-04-25T08:26:22;11.90;50.60
70820;DHT22;58439;51.046;13.692;2023-04-25T08:28:50;11.80;50.20
70820;DHT22;58439;51.046;13.692;2023-04-25T08:31:18;11.70;50.90
70820;DHT22;58439;51.046;13.692;2023-04-25T08:33:54;11.60;52.40
70820;DHT22;58439;51.046;13.692;2023-04-25T08:36:33;11.60;53.80
70820;DHT22;58439;51.046;13.692;2023-04-25T08:39:18;11.60;54.10
70820;DHT22;58439;51.046;13.692;2023-04-25T08:42:08;11.50;55.70
70820;DHT22;58439;51.046;13.692;2023-04-25T08:45:01;11.50;56.50
70820;DHT22;58439;51.046;13.692;2023-04-25T08:47:45;11.50;56.60
70820;DHT22;58439;51.046;13.692;2023-04-25T08:50:25;11.50;56.80
70820;DHT22;58439;51.046;13.692;2023-04-25T08:53:04;11.40;57.00
70820;DHT22;58439;51.046;13.692;2023-04-25T08:55:46;11.30;56.80
70820;DHT22;58439;51.046;13.692;2023-04-25T08:58:15;11.30;58.70
70820;DHT22;58439;51.046;13.692;2023-04-25T09:00:46;11.20;59.40
70820;DHT22;58439;51.046;13.692;2023-04-25T09:03:15;11.30;60.40
70820;DHT22;58439;51.046;13.692;2023-04-25T09:05:45;11.40;60.30
70820;DHT22;58439;51.046;13.692;2023-04-25T09:08:14;11.40;58.70
70820;DHT22;58439;51.046;13.692;2023-04-25T09:10:42;11.30;59.90
70820;DHT22;58439;51.046;13.692;2023-04-25T09:13:11;11.30;60.80
70820;DHT22;58439;51.046;13.692;2023-04-25T09:16:07;11.30;59.90
70820;DHT22;58439;51.046;13.692;2023-04-25T09:18:57;11.20;59.60
70820;DHT22;58439;51.046;13.692;2023-04-25T09:21:25;11.20;61.40
70820;DHT22;58439;51.046;13.692;2023-04-25T09:23:53;11.10;61.80
70820;DHT22;58439;51.046;13.692;2023-04-25T09:26:21;11.10;63.20
70820;DHT22;58439;51.046;13.692;2023-04-25T09:28:49;11.10;60.20
70820;DHT22;58439;51.046;13.692;2023-04-25T09:31:34;11.10;58.20
70820;DHT22;58439;51.046;13.692;2023-04-25T09:34:04;11.10;57.60
70820;DHT22;58439;51.046;13.692;2023-04-25T09:36:40;11.10;60.10
70820;DHT22;58439;51.046;13.692;2023-04-25T09:39:28;10.90;63.80
70820;DHT22;58439;51.046;13.692;2023-04-25T09:42:05;10.70;65.60
70820;DHT22;58439;51.046;13.692;2023-04-25T09:44:33;10.60;66.60
70820;DHT22;58439;51.046;13.692;2023-04-25T09:47:01;10.50;70.50
70820;DHT22;58439;51.046;13.692;2023-04-25T09:49:30;10.40;71.00
70820;DHT22;58439;51.046;13.692;2023-04-25T09:52:03;10.50;72.90
70820;DHT22;58439;51.046;13.692;2023-04-25T09:54:41;10.50;72.30
70820;DHT22;58439;51.046;13.692;2023-04-25T09:57:14;10.60;72.40
70820;DHT22;58439;51.046;13.692;2023-04-25T09:59:47;10.80;72.80
70820;DHT22;58439;51.046;13.692;2023-04-25T10:02:20;11.10;71.20
70820;DHT22;58439;51.046;13.692;2023-04-25T10:04:53;11.40;65.00
70820;DHT22;58439;51.046;13.692;2023-04-25T10:07:33;11.60;63.20
70820;DHT22;58439;51.046;13.692;2023-04-25T10:10:08;11.80;61.30
70820;DHT22;58439;51.046;13.692;2023-04-25T10:12:39;11.90;60.00
70820;DHT22;58439;51.046;13.692;2023-04-25T10:15:08;12.10;58.30
70820;DHT22;58439;51.046;13.692;2023-04-25T10:17:36;12.10;56.00
70820;DHT22;58439;51.046;13.692;2023-04-25T10:20:06;12.10;55.60
70820;DHT22;58439;51.046;13.692;2023-04-25T10:22:41;11.90;55.80
70820;DHT22;58439;51.046;13.692;2023-04-25T10:25:11;11.90;59.10
70820;DHT22;58439;51.046;13.692;2023-04-25T10:27:39;11.90;60.00
70820;DHT22;58439;51.046;13.692;2023-04-25T10:32:45;12.30;58.50
70820;DHT22;58439;51.046;13.692;2023-04-25T10:35:19;12.60;55.80
70820;DHT22;58439;51.046;13.692;2023-04-25T10:38:05;12.70;53.50
70820;DHT22;58439;51.046;13.692;2023-04-25T10:40:37;12.50;52.80
70820;DHT22;58439;51.046;13.692;2023-04-25T10:46:25;12.10;58.50
70820;DHT22;58439;51.046;13.692;2023-04-25T10:48:55;11.90;60.50
70820;DHT22;58439;51.046;13.692;2023-04-25T10:51:25;11.70;61.20
70820;DHT22;58439;51.046;13.692;2023-04-25T10:54:03;11.50;63.40
70820;DHT22;58439;51.046;13.692;2023-04-25T10:56:42;11.30;66.20
70820;DHT22;58439;51.046;13.692;2023-04-25T11:01:43;10.70;74.00
70820;DHT22;58439;51.046;13.692;2023-04-25T11:04:32;10.50;79.90
70820;DHT22;58439;51.046;13.692;2023-04-25T11:07:53;10.40;81.40
70820;DHT22;58439;51.046;13.692;2023-04-25T11:10:33;10.50;86.20
70820;DHT22;58439;51.046;13.692;2023-04-25T11:13:03;10.70;83.30
70820;DHT22;58439;51.046;13.692;2023-04-25T11:15:31;10.90;80.30
70820;DHT22;58439;51.046;13.692;2023-04-25T11:17:58;11.00;79.30
70820;DHT22;58439;51.046;13.692;2023-04-25T11:20:26;11.10;79.60
70820;DHT22;58439;51.046;13.692;2023-04-25T11:22:57;11.20;79.00
70820;DHT22;58439;51.046;13.692;2023-04-25T11:25:29;11.20;81.00
70820;DHT22;58439;51.046;13.692;2023-04-25T11:27:58;11.20;82.50
70820;DHT22;58439;51.046;13.692;2023-04-25T11:30:28;11.40;81.30
70820;DHT22;58439;51.046;13.692;2023-04-25T11:32:57;11.60;76.40
70820;DHT22;58439;51.046;13.692;2023-04-25T11:35:25;11.60;74.10
70820;DHT22;58439;51.046;13.692;2023-04-25T11:37:52;11.60;74.00
70820;DHT22;58439;51.046;13.692;2023-04-25T11:40:19;11.70;70.20
70820;DHT22;58439;51.046;13.692;2023-04-25T11:42:47;11.80;66.30
70820;DHT22;58439;51.046;13.692;2023-04-25T11:45:14;11.70;66.80
70820;DHT22;58439;51.046;13.692;2023-04-25T11:47:42;11.60;74.00
70820;DHT22;58439;51.046;13.692;2023-04-25T11:50:10;11.80;74.60
70820;DHT22;58439;51.046;13.692;2023-04-25T11:52:39;12.00;69.70
70820;DHT22;58439;51.046;13.692;2023-04-25T11:55:16;12.20;67.30
70820;DHT22;58439;51.046;13.692;2023-04-25T11:57:47;12.30;64.20
70820;DHT22;58439;51.046;13.692;2023-04-25T12:00:21;12.10;62.40
70820;DHT22;58439;51.046;13.692;2023-04-25T12:02:56;11.90;61.70
70820;DHT22;58439;51.046;13.692;2023-04-25T12:05:30;11.90;62.30
70820;DHT22;58439;51.046;13.692;2023-04-25T12:08:13;11.80;61.80
70820;DHT22;58439;51.046;13.692;2023-04-25T12:10:45;11.80;62.40
70820;DHT22;58439;51.046;13.692;2023-04-25T12:13:24;11.80;62.10
70820;DHT22;58439;51.046;13.692;2023-04-25T12:15:55;11.80;59.50
70820;DHT22;58439;51.046;13.692;2023-04-25T12:18:24;11.70;60.70
70820;DHT22;58439;51.046;13.692;2023-04-25T12:20:54;11.50;61.90
70820;DHT22;58439;51.046;13.692;2023-04-25T12:23:29;11.50;59.60
70820;DHT22;58439;51.046;13.692;2023-04-25T12:25:57;11.30;59.90
70820;DHT22;58439;51.046;13.692;2023-04-25T12:28:25;11.20;59.60
70820;DHT22;58439;51.046;13.692;2023-04-25T12:31:01;11.20;60.50
70820;DHT22;58439;51.046;13.692;2023-04-25T12:33:36;11.30;61.60
70820;DHT22;58439;51.046;13.692;2023-04-25T12:36:07;11.70;56.60
70820;DHT22;58439;51.046;13.692;2023-04-25T12:38:40;12.20;54.20
70820;DHT22;58439;51.046;13.692;2023-04-25T12:41:09;13.00;49.10
70820;DHT22;58439;51.046;13.692;2023-04-25T12:43:36;13.50;45.50
70820;DHT22;58439;51.046;13.692;2023-04-25T12:46:03;13.40;43.90
70820;DHT22;58439;51.046;13.692;2023-04-25T12:48:30;13.10;44.60
70820;DHT22;58439;51.046;13.692;2023-04-25T12:50:57;12.80;44.60
70820;DHT22;58439;51.046;13.692;2023-04-25T12:53:25;12.40;44.90
70820;DHT22;58439;51.046;13.692;2023-04-25T12:55:53;12.20;45.40
70820;DHT22;58439;51.046;13.692;2023-04-25T12:58:21;12.00;47.70
70820;DHT22;58439;51.046;13.692;2023-04-25T13:00:48;11.80;47.80
70820;DHT22;58439;51.046;13.692;2023-04-25T13:03:15;11.80;48.30
70820;DHT22;58439;51.046;13.692;2023-04-25T13:05:43;11.80;48.80
70820;DHT22;58439;51.046;13.692;2023-04-25T13:08:11;11.70;48.80
70820;DHT22;58439;51.046;13.692;2023-04-25T13:10:38;11.50;49.30
70820;DHT22;58439;51.046;13.692;2023-04-25T13:13:06;11.30;50.50
70820;DHT22;58439;51.046;13.692;2023-04-25T13:15:33;11.20;51.20
70820;DHT22;58439;51.046;13.692;2023-04-25T13:18:00;10.90;52.50
70820;DHT22;58439;51.046;13.692;2023-04-25T13:20:28;10.80;55.50
70820;DHT22;58439;51.046;13.692;2023-04-25T13:22:55;10.70;57.50
70820;DHT22;58439;51.046;13.692;2023-04-25T13:25:25;10.50;60.80
70820;DHT22;58439;51.046;13.692;2023-04-25T13:27:52;10.40;64.80
70820;DHT22;58439;51.046;13.692;2023-04-25T13:30:19;10.30;66.40
70820;DHT22;58439;51.046;13.692;2023-04-25T13:32:46;10.20;68.90
70820;DHT22;58439;51.046;13.692;2023-04-25T13:35:14;10.20;71.40
70820;DHT22;58439;51.046;13.692;2023-04-25T13:37:42;10.00;65.60
70820;DHT22;58439;51.046;13.692;2023-04-25T13:40:10;9.90;60.40
70820;DHT22;58439;51.046;13.692;2023-04-25T13:42:38;9.80;59.50
70820;DHT22;58439;51.046;13.692;2023-04-25T13:45:07;9.70;57.80
70820;DHT22;58439;51.046;13.692;2023-04-25T13:47:34;9.70;57.50
70820;DHT22;58439;51.046;13.692;2023-04-25T13:50:03;9.60;57.90
70820;DHT22;58439;51.046;13.692;2023-04-25T13:52:32;9.60;60.10
70820;DHT22;58439;51.046;13.692;2023-04-25T13:54:59;9.70;61.00
70820;DHT22;58439;51.046;13.692;2023-04-25T13:57:26;9.80;59.30
70820;DHT22;58439;51.046;13.692;2023-04-25T13:59:53;9.80;59.30
70820;DHT22;58439;51.046;13.692;2023-04-25T14:02:21;9.90;58.30
70820;DHT22;58439;51.046;13.692;2023-04-25T14:04:48;9.90;56.50
70820;DHT22;58439;51.046;13.692;2023-04-25T14:07:18;10.00;56.30
70820;DHT22;58439;51.046;13.692;2023-04-25T14:09:46;10.00;56.70
70820;DHT22;58439;51.046;13.692;2023-04-25T14:12:15;10.00;55.10
70820;DHT22;58439;51.046;13.692;2023-04-25T14:14:43;10.10;54.30
70820;DHT22;58439;51.046;13.692;2023-04-25T14:17:12;10.20;53.90
70820;DHT22;58439;51.046;13.692;2023-04-25T14:19:39;10.30;53.70
70820;DHT22;58439;51.046;13.692;2023-04-25T14:22:10;10.40;52.90
70820;DHT22;58439;51.046;13.692;2023-04-25T14:24:37;10.60;51.90
70820;DHT22;58439;51.046;13.692;2023-04-25T14:27:05;10.80;51.70
70820;DHT22;58439;51.046;13.692;2023-04-25T14:29:32;11.00;52.00
70820;DHT22;58439;51.046;13.692;2023-04-25T14:32:02;11.50;50.60
70820;DHT22;58439;51.046;13.692;2023-04-25T14:34:29;12.10;48.10
70820;DHT22;58439;51.046;13.692;2023-04-25T14:36:56;12.70;46.20
70820;DHT22;58439;51.046;13.692;2023-04-25T14:39:24;13.20;44.50
70820;DHT22;58439;51.046;13.692;2023-04-25T14:41:51;14.40;42.60
70820;DHT22;58439;51.046;13.692;2023-04-25T14:44:18;15.00;39.60
70820;DHT22;58439;51.046;13.692;2023-04-25T14:46:45;14.90;37.50
70820;DHT22;58439;51.046;13.692;2023-04-25T14:49:13;14.40;37.30
70820;DHT22;58439;51.046;13.692;2023-04-25T14:51:40;13.80;38.10
70820;DHT22;58439;51.046;13.692;2023-04-25T14:54:07;13.40;39.50
70820;DHT22;58439;51.046;13.692;2023-04-25T14:56:34;13.10;40.10
70820;DHT22;58439;51.046;13.692;2023-04-25T14:59:04;12.70;40.80
70820;DHT22;58439;51.046;13.692;2023-04-25T15:01:31;12.30;42.80
70820;DHT22;58439;51.046;13.692;2023-04-25T15:03:58;12.40;43.00
70820;DHT22;58439;51.046;13.692;2023-04-25T15:06:26;12.50;42.80
70820;DHT22;58439;51.046;13.692;2023-04-25T15:08:55;12.50;42.50
70820;DHT22;58439;51.046;13.692;2023-04-25T15:11:24;12.40;40.80
70820;DHT22;58439;51.046;13.692;2023-04-25T15:13:51;12.10;39.70
70820;DHT22;58439;51.046;13.692;2023-04-25T15:16:19;11.80;40.30
70820;DHT22;58439;51.046;13.692;2023-04-25T15:18:46;11.60;41.20
70820;DHT22;58439;51.046;13.692;2023-04-25T15:21:13;11.40;40.60
70820;DHT22;58439;51.046;13.692;2023-04-25T15:23:41;11.20;41.10
70820;DHT22;58439;51.046;13.692;2023-04-25T15:26:08;10.90;41.70
70820;DHT22;58439;51.046;13.692;2023-04-25T15:28:35;10.70;42.30
70820;DHT22;58439;51.046;13.692;2023-04-25T15:31:02;10.50;42.40
70820;DHT22;58439;51.046;13.692;2023-04-25T15:33:29;10.40;42.90
70820;DHT22;58439;51.046;13.692;2023-04-25T15:35:56;10.20;42.90
70820;DHT22;58439;51.046;13.692;2023-04-25T15:38:24;10.10;43.50
70820;DHT22;58439;51.046;13.692;2023-04-25T15:40:52;10.10;43.70
70820;DHT22;58439;51.046;13.692;2023-04-25T15:43:19;10.00;44.10
70820;DHT22;58439;51.046;13.692;2023-04-25T15:45:51;10.00;43.90
70820;DHT22;58439;51.046;13.692;2023-04-25T15:48:19;10.00;44.20
70820;DHT22;58439;51.046;13.692;2023-04-25T15:50:54;9.90;44.10
70820;DHT22;58439;51.046;13.692;2023-04-25T15:53:21;9.90;44.10
70820;DHT22;58439;51.046;13.692;2023-04-25T15:55:49;9.90;44.20
70820;DHT22;58439;51.046;13.692;2023-04-25T15:58:17;9.90;44.10